Time;durP1;ratioP1;P1;durP2;ratioP2;P2;SDS_P1;SDS_P2;PMS_P1;PMS_P2;Temp;Humidity;BMP_temperature;BMP_pressure;BME280_temperature;BME280_humidity;BME280_pressure;Samples;Min_cycle;Max_cycle;Signal;HPM_P1;HPM_P2
2022/09/30 00:01:35;;;;;;;4.83;3.50;;;5.40;99.90;;;;;;5012160;28;20313;-53
2022/09/30 00:04:04;;;;;;;3.50;3.20;;;5.40;99.90;;;;;;5012224;28;20213;-49
2022/09/30 00:06:33;;;;;;;71.30;38.83;;;5.50;99.90;;;;;;5012348;28;20294;-50
2022/09/30 00:09:03;;;;;;;5.30;3.47;;;5.40;99.90;;;;;;5012688;28;20205;-50
2022/09/30 00:11:34;;;;;;;3.40;3.10;;;5.30;99.90;;;;;;5011095;28;20285;-50
2022/09/30 00:14:02;;;;;;;7.53;4.47;;;5.30;99.90;;;;;;5011192;28;20293;-51
2022/09/30 00:16:36;;;;;;;6.77;4.00;;;5.30;99.90;;;;;;5011884;28;20324;-50
2022/09/30 00:19:05;;;;;;;4.67;4.17;;;5.20;99.90;;;;;;5012337;28;20274;-51
2022/09/30 00:21:33;;;;;;;13.60;6.90;;;5.20;99.90;;;;;;5010462;28;20326;-50
2022/09/30 00:24:02;;;;;;;4.50;4.10;;;5.10;99.90;;;;;;5011121;28;20294;-50
2022/09/30 00:26:32;;;;;;;3.87;3.50;;;5.10;99.90;;;;;;5011993;28;20246;-48
2022/09/30 00:29:01;;;;;;;3.90;3.50;;;5.10;99.90;;;;;;5011250;28;20321;-51
2022/09/30 00:31:32;;;;;;;6.10;4.90;;;5.10;99.90;;;;;;5011789;28;20318;-49
2022/09/30 00:34:06;;;;;;;3.50;3.20;;;5.10;99.90;;;;;;5009832;28;20257;-50
2022/09/30 00:36:37;;;;;;;4.73;3.70;;;5.10;99.90;;;;;;5011485;28;20663;-50
2022/09/30 00:39:06;;;;;;;41.53;20.10;;;5.10;99.90;;;;;;5011749;28;20248;-49
2022/09/30 00:41:37;;;;;;;4.73;4.17;;;5.20;99.90;;;;;;5011918;28;20228;-50
2022/09/30 00:44:38;;;;;;;5.73;5.33;;;5.20;99.90;;;;;;5010359;28;20239;-50
2022/09/30 00:47:33;;;;;;;4.03;3.73;;;5.10;99.90;;;;;;5008826;28;20291;-50
2022/09/30 00:50:04;;;;;;;4.33;3.60;;;5.10;99.90;;;;;;5007844;28;20308;-50
2022/09/30 00:52:33;;;;;;;3.77;3.47;;;5.10;99.90;;;;;;5010740;28;20727;-50
2022/09/30 00:55:07;;;;;;;10.43;8.60;;;5.10;99.90;;;;;;5010425;28;20238;-50
2022/09/30 00:57:36;;;;;;;8.33;5.33;;;5.10;99.90;;;;;;5010623;28;20203;-49
2022/09/30 01:00:06;;;;;;;17.47;7.93;;;5.10;99.90;;;;;;5011236;28;20291;-51
2022/09/30 01:02:34;;;;;;;6.20;3.80;;;5.10;99.90;;;;;;5010730;28;20266;-51
2022/09/30 01:05:02;;;;;;;4.60;4.20;;;5.00;99.90;;;;;;5010823;28;20294;-50
2022/09/30 01:07:30;;;;;;;4.73;4.33;;;5.00;99.90;;;;;;5010341;28;20213;-51
2022/09/30 01:09:58;;;;;;;4.63;3.83;;;5.00;99.90;;;;;;5010263;28;20313;-50
2022/09/30 01:12:26;;;;;;;7.43;4.30;;;5.00;99.90;;;;;;5010177;28;20720;-49
2022/09/30 01:14:58;;;;;;;4.30;3.90;;;5.00;99.90;;;;;;5010216;28;20206;-50
2022/09/30 01:17:36;;;;;;;4.20;3.90;;;5.00;99.90;;;;;;5010609;28;20281;-50
2022/09/30 01:20:29;;;;;;;5.23;3.93;;;5.00;99.90;;;;;;5009271;28;20300;-49
2022/09/30 01:23:15;;;;;;;7.27;4.90;;;5.00;99.90;;;;;;4993596;28;20207;-49
2022/09/30 01:26:12;;;;;;;4.60;4.17;;;5.00;99.90;;;;;;5007069;28;20298;-50
2022/09/30 01:29:17;;;;;;;10.23;5.10;;;4.90;99.90;;;;;;5009122;28;20301;-49
2022/09/30 01:31:56;;;;;;;6.40;4.07;;;4.90;99.90;;;;;;5006066;28;20241;-49
2022/09/30 01:34:37;;;;;;;16.13;11.47;;;4.90;99.90;;;;;;5006682;28;20312;-50
2022/09/30 01:37:13;;;;;;;4.00;3.60;;;4.90;99.90;;;;;;5009630;28;20719;-49
2022/09/30 01:39:51;;;;;;;4.37;3.70;;;4.90;99.90;;;;;;5009723;28;21033;-51
2022/09/30 01:42:24;;;;;;;4.80;3.87;;;4.80;99.90;;;;;;5009341;28;20258;-50
2022/09/30 01:45:02;;;;;;;7.93;4.03;;;4.80;99.90;;;;;;5010272;28;20221;-48
2022/09/30 01:47:36;;;;;;;4.37;3.97;;;4.80;99.90;;;;;;5010164;28;20198;-51
2022/09/30 01:50:09;;;;;;;4.30;3.73;;;4.80;99.90;;;;;;5009689;28;20303;-50
2022/09/30 01:52:42;;;;;;;4.30;3.57;;;4.80;99.90;;;;;;5009390;28;20235;-51
2022/09/30 01:55:17;;;;;;;28.27;16.67;;;4.80;99.90;;;;;;5008472;28;20641;-51
2022/09/30 01:57:50;;;;;;;4.10;3.70;;;4.80;99.90;;;;;;5009566;28;20209;-50
2022/09/30 02:00:20;;;;;;;5.00;3.87;;;4.70;99.90;;;;;;5008572;28;20290;-49
2022/09/30 02:02:53;;;;;;;4.53;3.77;;;4.70;99.90;;;;;;5008839;28;20733;-50
2022/09/30 02:05:27;;;;;;;4.87;3.70;;;4.70;99.90;;;;;;5008279;28;20210;-50
2022/09/30 02:07:59;;;;;;;4.13;3.77;;;4.60;99.90;;;;;;5009953;28;20212;-49
2022/09/30 02:10:33;;;;;;;4.47;3.80;;;4.60;99.90;;;;;;5008770;28;20219;-50
2022/09/30 02:13:09;;;;;;;4.90;4.47;;;4.60;99.90;;;;;;5008970;28;20206;-52
2022/09/30 02:15:41;;;;;;;31.23;10.17;;;4.60;99.90;;;;;;5006123;28;20274;-53
2022/09/30 02:18:18;;;;;;;4.90;4.47;;;4.60;99.90;;;;;;5009271;28;20249;-51
2022/09/30 02:20:49;;;;;;;4.30;3.90;;;4.60;99.90;;;;;;5006263;28;20673;-52
2022/09/30 02:23:24;;;;;;;4.43;4.03;;;4.50;99.90;;;;;;5009078;28;20222;-51
2022/09/30 02:26:05;;;;;;;4.90;4.50;;;4.60;99.90;;;;;;5009338;28;20254;-53
2022/09/30 02:28:37;;;;;;;5.33;4.83;;;4.60;99.90;;;;;;5009178;28;20227;-52
2022/09/30 02:31:09;;;;;;;4.87;4.20;;;4.60;99.90;;;;;;5009280;28;20665;-51
2022/09/30 02:33:43;;;;;;;7.20;4.23;;;4.60;99.90;;;;;;5007239;28;20240;-51
2022/09/30 02:36:19;;;;;;;5.93;4.40;;;4.50;99.90;;;;;;5009494;28;20997;-53
2022/09/30 02:38:50;;;;;;;5.23;4.50;;;4.50;99.90;;;;;;5003349;28;20284;-52
2022/09/30 02:41:25;;;;;;;5.03;4.53;;;4.50;99.90;;;;;;5009470;28;20236;-52
2022/09/30 02:43:54;;;;;;;4.90;4.40;;;4.50;99.90;;;;;;5005524;28;20201;-52
2022/09/30 02:46:33;;;;;;;6.57;4.50;;;4.50;99.90;;;;;;5009053;28;20352;-51
2022/09/30 02:49:08;;;;;;;5.97;4.73;;;4.50;99.90;;;;;;5008768;28;20241;-51
2022/09/30 02:51:42;;;;;;;4.43;4.00;;;4.50;99.90;;;;;;5009092;28;20715;-49
2022/09/30 02:54:19;;;;;;;5.63;4.40;;;4.40;99.90;;;;;;5008486;28;20204;-50
2022/09/30 02:56:54;;;;;;;7.13;4.73;;;4.40;99.90;;;;;;5009528;28;20244;-50
2022/09/30 02:59:23;;;;;;;6.37;5.57;;;4.40;99.90;;;;;;5009222;28;20651;-49
2022/09/30 03:01:51;;;;;;;4.67;4.27;;;4.40;99.90;;;;;;5008679;28;20341;-50
2022/09/30 03:04:24;;;;;;;6.07;4.37;;;4.40;99.90;;;;;;5008638;28;20238;-49
2022/09/30 03:06:52;;;;;;;5.17;4.00;;;4.40;99.90;;;;;;5009114;28;20238;-50
2022/09/30 03:09:24;;;;;;;6.70;6.10;;;4.40;99.90;;;;;;5008737;28;20248;-50
2022/09/30 03:11:58;;;;;;;5.40;4.73;;;4.40;99.90;;;;;;5007843;28;20257;-50
2022/09/30 03:14:45;;;;;;;4.53;4.13;;;4.40;99.90;;;;;;5008595;28;20941;-50
2022/09/30 03:17:33;;;;;;;4.00;3.70;;;4.40;99.90;;;;;;5009142;28;20315;-50
2022/09/30 03:20:20;;;;;;;4.87;4.00;;;4.40;99.90;;;;;;5008842;28;20295;-51
2022/09/30 03:23:06;;;;;;;4.60;4.27;;;4.40;99.90;;;;;;5007987;28;20625;-50
2022/09/30 03:25:46;;;;;;;4.53;4.10;;;4.40;99.90;;;;;;5008925;28;20622;-50
2022/09/30 03:28:24;;;;;;;5.97;4.20;;;4.40;99.90;;;;;;5008573;28;20208;-50
2022/09/30 03:31:01;;;;;;;6.03;4.17;;;4.40;99.90;;;;;;5008727;28;20238;-50
2022/09/30 03:33:38;;;;;;;4.90;4.50;;;4.40;99.90;;;;;;5007825;28;20639;-50
2022/09/30 03:36:12;;;;;;;6.83;6.23;;;4.40;99.90;;;;;;5008536;28;20776;-49
2022/09/30 03:38:48;;;;;;;4.57;4.17;;;4.40;99.90;;;;;;5008854;28;20243;-50
2022/09/30 03:41:24;;;;;;;4.80;4.40;;;4.30;99.90;;;;;;5005470;28;20311;-49
2022/09/30 03:43:58;;;;;;;5.07;3.77;;;4.30;99.90;;;;;;5007963;28;20290;-51
2022/09/30 03:46:31;;;;;;;5.60;4.10;;;4.30;99.90;;;;;;5008292;28;20205;-50
2022/09/30 03:49:03;;;;;;;4.93;4.43;;;4.30;99.90;;;;;;5012422;28;20762;-49
2022/09/30 03:51:34;;;;;;;4.37;3.97;;;4.30;99.90;;;;;;5007329;28;20230;-49
2022/09/30 03:54:08;;;;;;;4.40;4.00;;;4.20;99.90;;;;;;5008641;28;20204;-48
2022/09/30 03:56:41;;;;;;;4.60;4.20;;;4.20;99.90;;;;;;5009783;28;20228;-49
2022/09/30 03:59:16;;;;;;;4.63;3.87;;;4.20;99.90;;;;;;5011394;28;20297;-50
2022/09/30 04:01:44;;;;;;;7.40;4.70;;;4.20;99.90;;;;;;5010757;28;20665;-50
2022/09/30 04:04:12;;;;;;;4.93;4.23;;;4.20;99.90;;;;;;5007864;28;20295;-49
2022/09/30 04:06:42;;;;;;;5.50;4.37;;;4.10;99.90;;;;;;5008233;28;20287;-50
2022/09/30 04:09:10;;;;;;;4.70;4.10;;;4.10;99.90;;;;;;5009802;28;20221;-51
2022/09/30 04:11:38;;;;;;;4.30;3.90;;;4.10;99.90;;;;;;5009323;28;20659;-50
2022/09/30 04:14:07;;;;;;;5.03;3.97;;;4.10;99.90;;;;;;5009706;28;20592;-51
2022/09/30 04:16:35;;;;;;;36.83;19.13;;;4.10;99.90;;;;;;5010210;28;20210;-50
2022/09/30 04:19:03;;;;;;;6.00;4.60;;;4.10;99.90;;;;;;5006448;28;20211;-50
2022/09/30 04:21:31;;;;;;;5.97;4.97;;;4.10;99.90;;;;;;5006210;28;20306;-51
2022/09/30 04:24:01;;;;;;;4.80;4.20;;;4.10;99.90;;;;;;5006488;28;20206;-50
2022/09/30 04:26:29;;;;;;;5.57;4.97;;;4.10;99.90;;;;;;5005027;28;20218;-50
2022/09/30 04:28:57;;;;;;;4.83;4.43;;;4.00;99.90;;;;;;5007426;28;20203;-49
2022/09/30 04:31:25;;;;;;;17.50;13.20;;;4.10;99.90;;;;;;5010540;28;20269;-51
2022/09/30 04:33:55;;;;;;;4.63;4.23;;;4.10;99.90;;;;;;5008217;28;20203;-49
2022/09/30 04:36:23;;;;;;;17.47;10.60;;;4.10;99.90;;;;;;5005261;28;20657;-50
2022/09/30 04:38:52;;;;;;;4.80;4.40;;;4.00;99.90;;;;;;5002276;28;20229;-51
2022/09/30 04:41:21;;;;;;;5.80;4.60;;;4.00;99.90;;;;;;5005494;28;20253;-50
2022/09/30 04:43:50;;;;;;;6.40;5.50;;;4.00;99.90;;;;;;5001644;28;20203;-50
2022/09/30 04:46:21;;;;;;;6.13;4.80;;;4.00;99.90;;;;;;5009014;28;20291;-50
2022/09/30 04:48:50;;;;;;;7.70;5.03;;;4.00;99.90;;;;;;5008996;28;20306;-50
2022/09/30 04:51:19;;;;;;;4.67;4.30;;;4.00;99.90;;;;;;5010425;28;20785;-51
2022/09/30 04:53:48;;;;;;;5.30;4.80;;;4.00;99.90;;;;;;5008385;28;20694;-50
2022/09/30 04:56:17;;;;;;;4.80;4.30;;;4.00;99.90;;;;;;5010261;28;20214;-50
2022/09/30 04:58:46;;;;;;;4.77;4.37;;;4.00;99.90;;;;;;5006388;28;20512;-51
2022/09/30 05:01:16;;;;;;;6.07;4.97;;;3.90;99.90;;;;;;5009965;28;20296;-50
2022/09/30 05:03:46;;;;;;;4.93;4.33;;;3.90;99.90;;;;;;5010248;28;20212;-50
2022/09/30 05:06:14;;;;;;;4.30;3.90;;;3.90;99.90;;;;;;5009527;28;20685;-50
2022/09/30 05:08:43;;;;;;;5.07;4.50;;;3.90;99.90;;;;;;5010198;28;20203;-50
2022/09/30 05:11:16;;;;;;;5.10;4.50;;;3.90;99.90;;;;;;5010098;28;20250;-50
2022/09/30 05:13:46;;;;;;;5.70;4.63;;;3.90;99.90;;;;;;5009616;28;20211;-50
2022/09/30 05:16:15;;;;;;;4.87;4.47;;;3.90;99.90;;;;;;5010360;28;20211;-50
2022/09/30 05:18:45;;;;;;;7.47;5.13;;;3.90;99.90;;;;;;5009943;28;20243;-50
2022/09/30 05:21:15;;;;;;;6.67;5.00;;;3.90;99.90;;;;;;5009986;28;20285;-51
2022/09/30 05:23:45;;;;;;;5.40;4.70;;;3.90;99.90;;;;;;5009161;28;20213;-51
2022/09/30 05:26:13;;;;;;;5.10;4.70;;;3.90;99.90;;;;;;5009954;28;20217;-50
2022/09/30 05:28:42;;;;;;;6.03;4.63;;;3.90;99.90;;;;;;5010073;28;20285;-50
2022/09/30 05:31:12;;;;;;;5.30;4.80;;;3.90;99.90;;;;;;5010050;28;20241;-50
2022/09/30 05:33:40;;;;;;;6.77;4.87;;;3.90;99.90;;;;;;5008564;28;20207;-51
2022/09/30 05:36:11;;;;;;;6.67;5.27;;;3.90;99.90;;;;;;5010032;28;20280;-52
2022/09/30 05:38:39;;;;;;;6.70;4.40;;;4.00;99.90;;;;;;5009095;28;20313;-52
2022/09/30 05:41:10;;;;;;;5.80;5.30;;;4.00;99.90;;;;;;5007764;28;20688;-53
2022/09/30 05:43:39;;;;;;;8.30;5.17;;;4.00;99.90;;;;;;5008003;28;20715;-52
2022/09/30 05:46:08;;;;;;;7.33;4.70;;;4.00;99.90;;;;;;5007396;28;20304;-53
2022/09/30 05:48:37;;;;;;;5.47;4.63;;;4.10;99.90;;;;;;5005875;28;20300;-53
2022/09/30 05:51:06;;;;;;;5.27;4.67;;;3.90;99.90;;;;;;5007490;28;20240;-53
2022/09/30 05:53:38;;;;;;;4.53;3.70;;;3.80;99.90;;;;;;5005320;28;20217;-53
2022/09/30 05:56:06;;;;;;;5.30;4.33;;;3.80;99.90;;;;;;5009229;28;20298;-53
2022/09/30 05:58:35;;;;;;;5.03;4.50;;;3.80;99.90;;;;;;5009129;28;20349;-52
2022/09/30 06:01:07;;;;;;;5.50;4.90;;;3.90;99.90;;;;;;5003019;28;20232;-53
2022/09/30 06:03:42;;;;;;;5.30;4.67;;;4.00;99.90;;;;;;5007663;28;20209;-52
2022/09/30 06:06:11;;;;;;;4.60;4.17;;;4.00;99.90;;;;;;5007442;28;20217;-52
2022/09/30 06:08:40;;;;;;;6.00;4.47;;;4.00;99.90;;;;;;5009043;28;20211;-53
2022/09/30 06:11:11;;;;;;;7.17;5.00;;;4.00;99.90;;;;;;5007659;28;20330;-52
2022/09/30 06:13:40;;;;;;;6.60;5.50;;;4.10;99.90;;;;;;5008652;28;20208;-53
2022/09/30 06:16:09;;;;;;;6.23;5.30;;;4.10;99.90;;;;;;5008750;28;20736;-52
2022/09/30 06:18:40;;;;;;;7.90;7.10;;;4.20;99.90;;;;;;5008606;28;20273;-52
2022/09/30 06:21:11;;;;;;;9.17;7.40;;;4.30;99.90;;;;;;5008670;28;20230;-53
2022/09/30 06:23:40;;;;;;;8.27;7.57;;;4.30;99.90;;;;;;5006168;28;20725;-53
2022/09/30 06:26:10;;;;;;;6.50;5.90;;;4.40;99.90;;;;;;5008943;28;20631;-53
2022/09/30 06:28:38;;;;;;;9.93;6.93;;;4.40;99.90;;;;;;5003353;28;20202;-53
2022/09/30 06:31:07;;;;;;;10.27;8.27;;;4.60;99.90;;;;;;5008632;28;20609;-53
2022/09/30 06:33:35;;;;;;;8.93;6.43;;;4.70;99.90;;;;;;5007844;28;20392;-53
2022/09/30 06:36:04;;;;;;;10.83;9.77;;;4.90;99.90;;;;;;5000872;28;20221;-53
2022/09/30 06:38:36;;;;;;;13.07;11.73;;;5.20;99.90;;;;;;5008480;28;20358;-53
2022/09/30 06:41:04;;;;;;;26.50;21.77;;;5.60;99.90;;;;;;5007850;28;20234;-53
2022/09/30 06:43:33;;;;;;;38.33;34.43;;;6.00;99.90;;;;;;5008508;28;20290;-53
2022/09/30 06:46:22;;;;;;;42.37;38.20;;;6.30;99.90;;;;;;5002494;28;21014;-53
2022/09/30 06:48:57;;;;;;;51.73;44.93;;;6.60;99.90;;;;;;5008970;28;20216;-53
2022/09/30 06:51:40;;;;;;;159.40;120.20;;;6.90;99.90;;;;;;5009158;28;20276;-52
2022/09/30 06:54:10;;;;;;;132.57;106.83;;;7.00;99.90;;;;;;5009083;28;20214;-53
2022/09/30 06:56:38;;;;;;;102.07;89.27;;;7.10;99.90;;;;;;5009144;28;20686;-53
2022/09/30 06:59:06;;;;;;;86.30;72.73;;;7.20;99.90;;;;;;5008889;28;20325;-54
2022/09/30 07:01:35;;;;;;;135.33;121.10;;;7.30;99.90;;;;;;5001893;28;20309;-53
2022/09/30 07:04:08;;;;;;;123.33;107.93;;;7.40;99.90;;;;;;5005196;28;20215;-53
2022/09/30 07:06:37;;;;;;;210.70;159.80;;;7.40;99.90;;;;;;5008886;28;20215;-53
2022/09/30 07:09:06;;;;;;;258.17;231.27;;;7.60;99.90;;;;;;5008588;28;20291;-53
2022/09/30 07:11:37;;;;;;;273.47;206.43;;;7.80;99.90;;;;;;5008706;28;20635;-51
2022/09/30 07:14:05;;;;;;;203.43;183.70;;;7.90;99.90;;;;;;5006511;28;20213;-51
2022/09/30 07:16:34;;;;;;;242.23;212.10;;;8.10;99.90;;;;;;5006552;28;20298;-51
2022/09/30 07:19:04;;;;;;;242.80;198.33;;;8.20;99.90;;;;;;5009148;28;20233;-50
2022/09/30 07:21:32;;;;;;;259.57;218.07;;;8.40;99.90;;;;;;5010297;28;20223;-51
2022/09/30 07:24:01;;;;;;;302.87;266.10;;;8.40;99.90;;;;;;5011905;28;20711;-51
2022/09/30 07:26:29;;;;;;;188.70;153.87;;;8.50;99.90;;;;;;5009737;28;20293;-51
2022/09/30 07:28:59;;;;;;;276.93;247.63;;;8.50;99.90;;;;;;4993003;28;20752;-51
2022/09/30 07:31:28;;;;;;;232.63;188.57;;;8.70;99.90;;;;;;5011469;28;20735;-51
2022/09/30 07:34:05;;;;;;;291.53;252.57;;;8.80;99.90;;;;;;5010892;28;20639;-51
2022/09/30 07:36:36;;;;;;;283.37;213.27;;;9.00;99.90;;;;;;5010704;28;20221;-50
2022/09/30 07:39:08;;;;;;;281.47;245.83;;;9.10;99.90;;;;;;5009043;28;20274;-51
2022/09/30 07:41:38;;;;;;;324.83;267.70;;;9.30;99.90;;;;;;5005116;28;20226;-51
2022/09/30 07:44:13;;;;;;;235.90;211.30;;;9.40;99.90;;;;;;5011100;28;20245;-50
2022/09/30 07:46:43;;;;;;;166.93;144.03;;;9.40;99.90;;;;;;5011485;28;20214;-50
2022/09/30 07:49:19;;;;;;;89.17;76.37;;;9.30;99.90;;;;;;5010871;28;20215;-51
2022/09/30 07:51:47;;;;;;;47.87;42.63;;;9.30;99.90;;;;;;5011178;28;20234;-50
2022/09/30 07:54:18;;;;;;;103.13;94.40;;;9.30;99.90;;;;;;5009431;28;20240;-51
2022/09/30 07:56:46;;;;;;;88.23;62.13;;;9.20;99.90;;;;;;5010938;28;20294;-51
2022/09/30 07:59:38;;;;;;;31.47;27.93;;;9.20;99.90;;;;;;5010051;28;20224;-51
2022/09/30 08:02:08;;;;;;;27.13;23.90;;;9.20;99.90;;;;;;5011564;28;20317;-51
2022/09/30 08:04:36;;;;;;;14.40;13.23;;;9.20;99.90;;;;;;5008988;28;20290;-51
2022/09/30 08:07:11;;;;;;;14.43;13.03;;;9.30;99.90;;;;;;5011098;28;20218;-51
2022/09/30 08:09:39;;;;;;;31.27;28.30;;;9.30;99.90;;;;;;5011223;28;20260;-51
2022/09/30 08:12:08;;;;;;;37.33;33.80;;;9.40;99.90;;;;;;5008446;28;20250;-51
2022/09/30 08:14:37;;;;;;;6.50;5.80;;;9.50;99.90;;;;;;5006976;28;20652;-51
2022/09/30 08:17:06;;;;;;;17.50;15.73;;;9.60;99.90;;;;;;5010420;28;20245;-51
2022/09/30 08:19:34;;;;;;;32.37;24.47;;;9.60;99.90;;;;;;5011112;28;20230;-51
2022/09/30 08:22:02;;;;;;;36.93;28.07;;;9.70;99.90;;;;;;5010204;28;20297;-51
2022/09/30 08:24:35;;;;;;;21.27;19.27;;;9.80;99.90;;;;;;5010783;28;20301;-50
2022/09/30 08:27:04;;;;;;;13.20;11.63;;;9.80;99.90;;;;;;5011068;28;20296;-50
2022/09/30 08:29:32;;;;;;;38.47;33.23;;;9.90;99.90;;;;;;5011173;28;20207;-50
2022/09/30 08:32:21;;;;;;;27.47;19.97;;;10.00;99.90;;;;;;5008718;28;20227;-52
2022/09/30 08:34:49;;;;;;;22.50;17.40;;;10.10;99.90;;;;;;5010913;28;20300;-51
2022/09/30 08:37:17;;;;;;;39.00;33.90;;;10.20;99.90;;;;;;5010222;28;20270;-49
2022/09/30 08:39:47;;;;;;;25.03;22.37;;;10.20;99.90;;;;;;5011205;28;20314;-50
2022/09/30 08:42:27;;;;;;;20.90;14.47;;;10.30;99.90;;;;;;5010179;28;20234;-51
2022/09/30 08:45:25;;;;;;;17.97;14.90;;;10.40;99.90;;;;;;5010596;28;20223;-51
2022/09/30 08:48:02;;;;;;;42.73;35.67;;;10.50;99.90;;;;;;5010569;28;20217;-50
2022/09/30 08:50:39;;;;;;;56.73;46.13;;;10.50;99.90;;;;;;5010422;28;20298;-50
2022/09/30 08:53:15;;;;;;;62.80;56.90;;;10.60;99.90;;;;;;5010081;28;20302;-51
2022/09/30 08:55:45;;;;;;;33.80;24.30;;;10.60;99.90;;;;;;5004332;28;20241;-51
2022/09/30 08:58:22;;;;;;;9.43;8.20;;;10.70;99.90;;;;;;5009866;28;20226;-51
2022/09/30 09:00:55;;;;;;;47.83;42.67;;;10.70;99.90;;;;;;5010591;28;20309;-50
2022/09/30 09:03:29;;;;;;;60.70;54.10;;;10.80;99.90;;;;;;5002748;28;20211;-51
2022/09/30 09:06:08;;;;;;;25.00;19.80;;;10.80;99.90;;;;;;5009358;28;20290;-51
2022/09/30 09:08:52;;;;;;;9.50;7.57;;;10.80;99.90;;;;;;5009675;28;20325;-51
2022/09/30 09:11:31;;;;;;;58.83;52.53;;;10.90;99.90;;;;;;5006134;28;20322;-50
2022/09/30 09:14:04;;;;;;;29.17;24.53;;;10.90;99.90;;;;;;5009241;28;20207;-51
2022/09/30 09:16:37;;;;;;;52.53;47.43;;;11.00;99.90;;;;;;5005371;28;20632;-51
2022/09/30 09:19:10;;;;;;;20.37;17.70;;;11.00;99.90;;;;;;5009782;28;20225;-51
2022/09/30 09:21:50;;;;;;;39.47;35.47;;;11.10;99.90;;;;;;5009453;28;20345;-51
2022/09/30 09:24:22;;;;;;;87.77;63.97;;;11.20;99.90;;;;;;5009443;28;20294;-51
2022/09/30 09:26:51;;;;;;;106.43;62.23;;;11.30;99.90;;;;;;5009084;28;20213;-51
2022/09/30 09:29:33;;;;;;;43.43;27.53;;;11.40;99.90;;;;;;5005508;28;20239;-51
2022/09/30 09:32:02;;;;;;;38.60;35.17;;;11.40;99.90;;;;;;5007662;28;20310;-51
2022/09/30 09:34:32;;;;;;;45.90;37.23;;;11.40;99.90;;;;;;5008353;28;20219;-51
2022/09/30 09:37:14;;;;;;;64.43;54.90;;;11.50;99.90;;;;;;5008991;28;20198;-51
2022/09/30 09:39:58;;;;;;;138.47;92.57;;;11.40;99.90;;;;;;5008997;28;20313;-51
2022/09/30 09:42:46;;;;;;;69.67;61.17;;;11.50;99.90;;;;;;5006863;28;20230;-51
2022/09/30 09:45:23;;;;;;;62.43;54.40;;;11.50;99.90;;;;;;5007833;28;20257;-52
2022/09/30 09:47:51;;;;;;;63.63;54.27;;;11.60;99.90;;;;;;5008964;28;20755;-52
2022/09/30 09:50:25;;;;;;;123.77;101.03;;;11.60;99.90;;;;;;5009281;28;20207;-51
2022/09/30 09:53:23;;;;;;;48.23;43.20;;;11.70;99.90;;;;;;5005436;28;20234;-51
2022/09/30 09:55:58;;;;;;;17.50;13.57;;;11.70;99.90;;;;;;5003300;28;20234;-51
2022/09/30 09:58:27;;;;;;;19.37;16.80;;;11.70;99.90;;;;;;5001943;28;20214;-51
2022/09/30 10:01:31;;;;;;;64.80;40.53;;;11.80;99.90;;;;;;5007120;28;20669;-51
2022/09/30 10:04:15;;;;;;;29.13;25.87;;;11.90;99.90;;;;;;5004096;28;20691;-51
2022/09/30 10:06:51;;;;;;;38.80;34.60;;;11.90;99.90;;;;;;5003154;28;20628;-52
2022/09/30 10:09:30;;;;;;;77.70;52.60;;;12.00;99.90;;;;;;5005217;28;20774;-51
2022/09/30 10:12:27;;;;;;;71.93;53.80;;;12.00;99.90;;;;;;5003914;28;20254;-51
2022/09/30 10:15:18;;;;;;;100.03;90.37;;;12.00;99.90;;;;;;5006478;28;20207;-51
2022/09/30 10:17:52;;;;;;;162.17;101.73;;;12.10;99.90;;;;;;5005309;28;20756;-50
2022/09/30 10:20:28;;;;;;;94.07;55.97;;;12.20;99.90;;;;;;5008918;28;20234;-51
2022/09/30 10:23:19;;;;;;;88.77;63.77;;;12.20;99.90;;;;;;5004729;28;20313;-51
2022/09/30 10:26:03;;;;;;;71.97;64.10;;;12.30;99.90;;;;;;5005316;28;20213;-51
2022/09/30 10:28:34;;;;;;;170.77;116.60;;;12.40;99.90;;;;;;5006248;28;20245;-51
2022/09/30 10:31:06;;;;;;;113.03;94.80;;;12.40;99.90;;;;;;5006606;28;20302;-50
2022/09/30 10:33:43;;;;;;;56.00;47.90;;;12.50;99.90;;;;;;5007079;28;20286;-51
2022/09/30 10:36:16;;;;;;;76.83;58.90;;;12.50;99.90;;;;;;5004968;28;20679;-51
2022/09/30 10:38:57;;;;;;;46.23;40.70;;;12.50;99.90;;;;;;5005823;28;20290;-51
2022/09/30 10:41:33;;;;;;;68.23;54.27;;;12.50;99.90;;;;;;5001393;28;20326;-51
2022/09/30 10:44:03;;;;;;;106.60;87.27;;;12.50;99.90;;;;;;5003709;28;20202;-50
2022/09/30 10:46:35;;;;;;;84.20;72.97;;;12.60;99.90;;;;;;5006393;28;20630;-51
2022/09/30 10:49:10;;;;;;;156.00;124.57;;;12.60;99.90;;;;;;5004593;28;20687;-51
2022/09/30 10:51:39;;;;;;;176.80;155.33;;;12.70;99.90;;;;;;5004200;28;20309;-50
2022/09/30 10:54:49;;;;;;;74.03;62.13;;;12.70;99.90;;;;;;5004625;28;20678;-51
2022/09/30 10:57:22;;;;;;;58.20;45.63;;;12.70;99.90;;;;;;5005659;28;20305;-50
2022/09/30 10:59:54;;;;;;;126.30;107.17;;;12.80;99.90;;;;;;5007909;28;20203;-51
2022/09/30 11:02:29;;;;;;;121.33;93.20;;;12.90;99.90;;;;;;5006747;28;20245;-50
2022/09/30 11:05:12;;;;;;;101.03;90.03;;;12.90;99.90;;;;;;5007177;28;20574;-51
2022/09/30 11:07:45;;;;;;;144.47;93.43;;;12.90;99.90;;;;;;5006255;28;20249;-51
2022/09/30 11:10:28;;;;;;;104.47;93.33;;;12.90;99.90;;;;;;5008829;28;20297;-51
2022/09/30 11:13:05;;;;;;;309.10;199.90;;;12.90;99.90;;;;;;5006817;28;20321;-53
2022/09/30 11:15:41;;;;;;;48.77;36.03;;;13.10;99.90;;;;;;5006990;28;20257;-54
2022/09/30 11:18:19;;;;;;;32.60;23.03;;;13.10;99.90;;;;;;5005158;28;20294;-53
2022/09/30 11:20:54;;;;;;;146.57;103.50;;;13.10;99.90;;;;;;5006361;28;20674;-53
2022/09/30 11:23:29;;;;;;;163.77;135.30;;;13.20;99.90;;;;;;5006167;28;20302;-53
2022/09/30 11:26:07;;;;;;;142.67;129.87;;;13.20;99.90;;;;;;5008023;28;20313;-53
2022/09/30 11:28:52;;;;;;;136.77;122.60;;;13.20;99.90;;;;;;5007408;28;20581;-53
2022/09/30 11:31:29;;;;;;;77.87;70.43;;;13.30;99.90;;;;;;5007993;28;20227;-53
2022/09/30 11:34:23;;;;;;;135.20;120.00;;;13.40;99.90;;;;;;5006438;28;20293;-53
2022/09/30 11:37:01;;;;;;;100.37;90.60;;;13.40;99.90;;;;;;5005736;28;20290;-53
2022/09/30 11:39:53;;;;;;;241.43;170.07;;;13.50;99.90;;;;;;5007827;28;20586;-54
2022/09/30 11:42:33;;;;;;;92.80;83.10;;;13.60;99.90;;;;;;5007004;28;20321;-54
2022/09/30 11:45:14;;;;;;;155.77;115.00;;;13.60;99.90;;;;;;5007669;28;20409;-53
2022/09/30 11:47:56;;;;;;;107.27;84.90;;;13.60;99.90;;;;;;5007734;28;20239;-52
2022/09/30 11:50:33;;;;;;;93.70;83.73;;;13.60;99.90;;;;;;5008117;28;20621;-54
2022/09/30 11:53:13;;;;;;;98.17;64.73;;;13.60;99.90;;;;;;5006890;28;20225;-54
2022/09/30 11:55:59;;;;;;;131.07;118.53;;;13.70;99.90;;;;;;5008093;28;21356;-53
2022/09/30 11:58:36;;;;;;;99.50;90.20;;;13.70;99.90;;;;;;5007541;28;20274;-53
2022/09/30 12:01:20;;;;;;;202.50;163.93;;;13.80;99.90;;;;;;4997247;28;20992;-53
2022/09/30 12:03:56;;;;;;;108.57;97.90;;;13.80;99.90;;;;;;5002619;28;20261;-54
2022/09/30 12:06:30;;;;;;;142.20;117.50;;;13.70;99.90;;;;;;5006967;28;20493;-53
2022/09/30 12:09:04;;;;;;;136.67;122.23;;;13.80;99.90;;;;;;5010634;28;20229;-54
2022/09/30 12:11:38;;;;;;;96.77;86.60;;;13.80;99.90;;;;;;5008469;28;20305;-53
2022/09/30 12:14:16;;;;;;;113.37;103.03;;;13.80;99.90;;;;;;5009758;28;20257;-54
2022/09/30 12:16:46;;;;;;;85.07;77.07;;;13.90;99.90;;;;;;5010850;28;20249;-53
2022/09/30 12:19:17;;;;;;;52.80;47.77;;;13.90;99.90;;;;;;5010951;28;20221;-54
2022/09/30 12:21:56;;;;;;;69.97;62.77;;;13.90;99.90;;;;;;5010537;28;20829;-53
2022/09/30 12:24:31;;;;;;;105.20;95.87;;;13.90;99.90;;;;;;5010338;28;20298;-54
2022/09/30 12:27:00;;;;;;;141.67;127.90;;;13.90;99.90;;;;;;5006646;28;20226;-54
2022/09/30 12:32:47;;;;;;;364.90;325.40;;;13.90;99.90;;;;;;5001782;28;20255;-53
2022/09/30 12:35:36;;;;;;;123.93;113.17;;;13.90;99.90;;;;;;5008687;28;20302;-53
2022/09/30 12:38:20;;;;;;;77.27;69.30;;;13.90;99.90;;;;;;5010058;28;20236;-53
2022/09/30 12:40:59;;;;;;;88.60;80.10;;;14.00;99.90;;;;;;5002348;28;20293;-53
2022/09/30 12:44:05;;;;;;;88.63;78.83;;;14.00;99.90;;;;;;5009179;28;20294;-54
2022/09/30 12:46:54;;;;;;;139.97;127.77;;;14.00;99.90;;;;;;5005522;28;20264;-53
2022/09/30 12:49:25;;;;;;;165.77;148.03;;;13.90;99.90;;;;;;5008702;28;20242;-53
2022/09/30 12:51:56;;;;;;;133.37;121.57;;;13.90;99.90;;;;;;5008724;28;20310;-53
2022/09/30 12:54:27;;;;;;;141.97;128.03;;;13.90;99.90;;;;;;5008535;28;20261;-54
2022/09/30 12:56:59;;;;;;;144.67;131.07;;;14.00;99.90;;;;;;5009318;28;20294;-53
2022/09/30 12:59:30;;;;;;;131.87;118.13;;;14.00;99.90;;;;;;5010916;28;20213;-54
2022/09/30 13:02:02;;;;;;;169.37;152.40;;;14.10;99.90;;;;;;5008449;28;20711;-54
2022/09/30 13:04:34;;;;;;;106.87;94.87;;;14.10;99.90;;;;;;5006716;28;20257;-53
2022/09/30 13:07:15;;;;;;;141.47;128.00;;;14.20;99.90;;;;;;5008767;28;20207;-53
2022/09/30 13:10:23;;;;;;;209.37;186.50;;;14.20;99.90;;;;;;5008280;28;20261;-53
2022/09/30 13:13:16;;;;;;;146.87;131.73;;;14.20;99.90;;;;;;5006831;28;20300;-53
2022/09/30 13:15:45;;;;;;;173.73;155.27;;;14.20;99.90;;;;;;5008335;28;20242;-54
2022/09/30 13:18:50;;;;;;;100.30;91.13;;;14.20;99.90;;;;;;5008936;28;21008;-54